Ruidoso Downs, NM

12:48 PM MDT on September 01, 2014 (GMT -0600)
Hodge Podge Lodge | Change Station
CLOSE
Current Station
Personal Weather Station
Location: Ruidoso (Gateway), NM
Elevation: 6530 ft
Nearby Weather Stations

Elev 6530 ft 33.32 °N, 105.64 °W | Updated 6 minutes ago

Clear
Clear
82.8 °F
Feels Like 81 °F
N
0.0
Wind Variable Wind from NW
Gusts 6.0 mph

Today
High -- | Low -- °F
--% Chance of Precip.
Yesterday
High -- | Low -- °F
Precip. -- in
6:36 AM 7:27 PM
Waxing Crescent, 43% visible
Pressure 30.24 in
Visibility 10.0 miles
Clouds Clear
Heat Index 81 °F
Dew Point 43 °F
Humidity 25%
Rainfall 0.00 in
Snow Depth 1 in
UV 12 out of 12
Pollen 10.10 out of 12
Air Quality Not available.
Flu Activity Not available.
METAR KSRR 011835Z AUTO 04006KT 10SM CLR 27/04 A3024 RMK AO2

More Conditions Fewer Conditions

Pressure 30.24 in
Visibility 10.0 miles
Clouds Clear
Heat Index 81 °F
Dew Point 43 °F
Humidity 25%
Rainfall 0.00 in
Snow Depth 1 in
UV 12 out of 12
Pollen 10.10 out of 12
Air Quality Not available.
Flu Activity Not available.
METAR KSRR 011835Z AUTO 04006KT 10SM CLR 27/04 A3024 RMK AO2

More Conditions Fewer Conditions

10-Day Weather Forecast

Almanac

Astronomy

Sep. 01, 2014 Rise Set
Actual Time 6:36 AM MDT 7:27 PM MDT
Civil Twilight 6:11 AM MDT 7:52 PM MDT
Nautical Twilight 5:41 AM MDT 8:22 PM MDT
Astronomical Twilight 5:10 AM MDT 8:53 PM MDT
Moon 1:04 PM MDT 11:51 PM MDT
Length of Visible Light 13h 41m
Length of Day
12h 50m
Tomorrow will be 1m 58s shorter.
Waxing Crescent, 43% of the Moon is Illuminated
Today
Waxing Crescent
Sep 2
First Quarter
Sep 8
Full
Sep 15
Last Quarter
Sep 24
New

Today's Extremes

State Highs State Lows

Community

WunderPhotos

Upload Photos

1,749,359 photos uploaded!

Nearby

Snow Depth

Station Depth Elevation
Sierra Blanca 1 in 10280 ft
Wesner Springs 0 in 11120 ft
Santa Fe 1 in 11445 ft
Silver Creek Divide 17 in 9000 ft
Quemazon 0 in 9500 ft

Earthquake Activity

City Distance Mag. Time & Date
No recent earthquake activity has been reported nearby.
Minimum magnitude displayed is 2.5.

Coastal Water Temperatures

Place Temperature
No Stations Reporting

Nearby Weather Stations